sensor_id;sensor_type;location;lat;lon;timestamp;temperature;humidity
10812;DHT22;5458;51.496;7.334;2022-07-22T00:02:06;19.20;99.90
10812;DHT22;5458;51.496;7.334;2022-07-22T00:04:32;19.30;99.90
10812;DHT22;5458;51.496;7.334;2022-07-22T00:06:57;19.30;99.90
10812;DHT22;5458;51.496;7.334;2022-07-22T00:09:23;19.30;99.90
10812;DHT22;5458;51.496;7.334;2022-07-22T00:11:48;19.20;99.90
10812;DHT22;5458;51.496;7.334;2022-07-22T00:14:14;19.10;99.90
10812;DHT22;5458;51.496;7.334;2022-07-22T00:16:41;19.10;99.90
10812;DHT22;5458;51.496;7.334;2022-07-22T00:19:06;19.10;99.90
10812;DHT22;5458;51.496;7.334;2022-07-22T00:21:32;19.10;99.90
10812;DHT22;5458;51.496;7.334;2022-07-22T00:23:57;19.10;99.90
10812;DHT22;5458;51.496;7.334;2022-07-22T00:26:23;19.10;99.90
10812;DHT22;5458;51.496;7.334;2022-07-22T00:28:49;19.10;99.90
10812;DHT22;5458;51.496;7.334;2022-07-22T00:31:14;19.20;99.90
10812;DHT22;5458;51.496;7.334;2022-07-22T00:33:40;19.20;99.90
10812;DHT22;5458;51.496;7.334;2022-07-22T00:36:07;19.20;99.90
10812;DHT22;5458;51.496;7.334;2022-07-22T00:38:33;19.30;99.90
10812;DHT22;5458;51.496;7.334;2022-07-22T00:40:59;19.20;99.90
10812;DHT22;5458;51.496;7.334;2022-07-22T00:43:24;19.20;99.90
10812;DHT22;5458;51.496;7.334;2022-07-22T00:45:50;19.20;99.90
10812;DHT22;5458;51.496;7.334;2022-07-22T00:48:16;19.20;99.90
10812;DHT22;5458;51.496;7.334;2022-07-22T00:50:41;19.20;99.90
10812;DHT22;5458;51.496;7.334;2022-07-22T00:53:07;19.20;99.90
10812;DHT22;5458;51.496;7.334;2022-07-22T00:55:34;19.20;99.90
10812;DHT22;5458;51.496;7.334;2022-07-22T00:58:01;19.20;99.90
10812;DHT22;5458;51.496;7.334;2022-07-22T01:00:27;19.10;99.90
10812;DHT22;5458;51.496;7.334;2022-07-22T01:02:53;19.10;99.90
10812;DHT22;5458;51.496;7.334;2022-07-22T01:05:19;19.10;99.90
10812;DHT22;5458;51.496;7.334;2022-07-22T01:07:45;19.10;99.90
10812;DHT22;5458;51.496;7.334;2022-07-22T01:10:10;19.10;99.90
10812;DHT22;5458;51.496;7.334;2022-07-22T01:12:36;19.10;99.90
10812;DHT22;5458;51.496;7.334;2022-07-22T01:15:03;19.10;99.90
10812;DHT22;5458;51.496;7.334;2022-07-22T01:17:29;19.10;99.90
10812;DHT22;5458;51.496;7.334;2022-07-22T01:20:05;19.10;99.90
10812;DHT22;5458;51.496;7.334;2022-07-22T01:22:31;19.10;99.90
10812;DHT22;5458;51.496;7.334;2022-07-22T01:24:57;19.10;99.90
10812;DHT22;5458;51.496;7.334;2022-07-22T01:27:23;19.10;99.90
10812;DHT22;5458;51.496;7.334;2022-07-22T01:29:48;19.00;99.90
10812;DHT22;5458;51.496;7.334;2022-07-22T01:32:14;19.00;99.90
10812;DHT22;5458;51.496;7.334;2022-07-22T01:34:39;19.00;99.90
10812;DHT22;5458;51.496;7.334;2022-07-22T01:37:05;19.00;99.90
10812;DHT22;5458;51.496;7.334;2022-07-22T01:39:31;18.90;99.90
10812;DHT22;5458;51.496;7.334;2022-07-22T01:41:56;18.90;99.90
10812;DHT22;5458;51.496;7.334;2022-07-22T01:44:22;18.90;99.90
10812;DHT22;5458;51.496;7.334;2022-07-22T01:46:47;18.90;99.90
10812;DHT22;5458;51.496;7.334;2022-07-22T01:49:15;18.90;99.90
10812;DHT22;5458;51.496;7.334;2022-07-22T01:51:42;18.90;99.90
10812;DHT22;5458;51.496;7.334;2022-07-22T01:54:07;18.90;99.90
10812;DHT22;5458;51.496;7.334;2022-07-22T01:56:33;18.90;99.90
10812;DHT22;5458;51.496;7.334;2022-07-22T01:58:58;18.90;99.90
10812;DHT22;5458;51.496;7.334;2022-07-22T02:01:24;18.80;99.90
10812;DHT22;5458;51.496;7.334;2022-07-22T02:03:50;18.80;99.90
10812;DHT22;5458;51.496;7.334;2022-07-22T02:06:15;18.80;99.90
10812;DHT22;5458;51.496;7.334;2022-07-22T02:08:41;18.80;99.90
10812;DHT22;5458;51.496;7.334;2022-07-22T02:11:07;18.80;99.90
10812;DHT22;5458;51.496;7.334;2022-07-22T02:13:32;18.80;99.90
10812;DHT22;5458;51.496;7.334;2022-07-22T02:15:58;18.70;99.90
10812;DHT22;5458;51.496;7.334;2022-07-22T02:18:23;18.70;99.90
10812;DHT22;5458;51.496;7.334;2022-07-22T02:20:50;18.60;99.90
10812;DHT22;5458;51.496;7.334;2022-07-22T02:23:16;18.70;99.90
10812;DHT22;5458;51.496;7.334;2022-07-22T02:25:42;18.70;99.90
10812;DHT22;5458;51.496;7.334;2022-07-22T02:28:08;18.70;99.90
10812;DHT22;5458;51.496;7.334;2022-07-22T02:30:34;18.70;99.90
10812;DHT22;5458;51.496;7.334;2022-07-22T02:32:59;18.80;99.90
10812;DHT22;5458;51.496;7.334;2022-07-22T02:35:25;18.70;99.90
10812;DHT22;5458;51.496;7.334;2022-07-22T02:37:51;18.70;99.90
10812;DHT22;5458;51.496;7.334;2022-07-22T02:40:17;18.70;99.90
10812;DHT22;5458;51.496;7.334;2022-07-22T02:42:42;18.70;99.90
10812;DHT22;5458;51.496;7.334;2022-07-22T02:45:09;18.60;99.90
10812;DHT22;5458;51.496;7.334;2022-07-22T02:47:34;18.70;99.90
10812;DHT22;5458;51.496;7.334;2022-07-22T02:50:00;18.70;99.90
10812;DHT22;5458;51.496;7.334;2022-07-22T02:52:26;18.70;99.90
10812;DHT22;5458;51.496;7.334;2022-07-22T02:54:52;18.60;99.90
10812;DHT22;5458;51.496;7.334;2022-07-22T02:57:17;18.60;99.90
10812;DHT22;5458;51.496;7.334;2022-07-22T02:59:43;18.60;99.90
10812;DHT22;5458;51.496;7.334;2022-07-22T03:02:09;18.60;99.90
10812;DHT22;5458;51.496;7.334;2022-07-22T03:04:34;18.60;99.90
10812;DHT22;5458;51.496;7.334;2022-07-22T03:07:00;18.70;99.90
10812;DHT22;5458;51.496;7.334;2022-07-22T03:09:25;18.60;99.90
10812;DHT22;5458;51.496;7.334;2022-07-22T03:11:51;18.70;99.90
10812;DHT22;5458;51.496;7.334;2022-07-22T03:14:17;18.70;99.90
10812;DHT22;5458;51.496;7.334;2022-07-22T03:16:44;18.70;99.90
10812;DHT22;5458;51.496;7.334;2022-07-22T03:19:09;18.70;99.90
10812;DHT22;5458;51.496;7.334;2022-07-22T03:21:35;18.70;99.90
10812;DHT22;5458;51.496;7.334;2022-07-22T03:24:01;18.70;99.90
10812;DHT22;5458;51.496;7.334;2022-07-22T03:26:26;18.70;99.90
10812;DHT22;5458;51.496;7.334;2022-07-22T03:28:52;18.70;99.90
10812;DHT22;5458;51.496;7.334;2022-07-22T03:31:18;18.70;99.90
10812;DHT22;5458;51.496;7.334;2022-07-22T03:33:43;18.70;99.90
10812;DHT22;5458;51.496;7.334;2022-07-22T03:36:09;18.70;99.90
10812;DHT22;5458;51.496;7.334;2022-07-22T03:38:35;18.60;99.90
10812;DHT22;5458;51.496;7.334;2022-07-22T03:41:01;18.60;99.90
10812;DHT22;5458;51.496;7.334;2022-07-22T03:43:27;18.60;99.90
10812;DHT22;5458;51.496;7.334;2022-07-22T03:45:52;18.60;99.90
10812;DHT22;5458;51.496;7.334;2022-07-22T03:48:18;18.60;99.90
10812;DHT22;5458;51.496;7.334;2022-07-22T03:50:43;18.60;99.90
10812;DHT22;5458;51.496;7.334;2022-07-22T03:53:09;18.60;99.90
10812;DHT22;5458;51.496;7.334;2022-07-22T03:55:35;18.60;99.90
10812;DHT22;5458;51.496;7.334;2022-07-22T03:58:00;18.70;99.90
10812;DHT22;5458;51.496;7.334;2022-07-22T04:00:26;18.60;99.90
10812;DHT22;5458;51.496;7.334;2022-07-22T04:02:52;18.60;99.90
10812;DHT22;5458;51.496;7.334;2022-07-22T04:05:18;18.70;99.90
10812;DHT22;5458;51.496;7.334;2022-07-22T04:07:44;18.70;99.90
10812;DHT22;5458;51.496;7.334;2022-07-22T04:10:09;18.70;99.90
10812;DHT22;5458;51.496;7.334;2022-07-22T04:12:37;18.60;99.90
10812;DHT22;5458;51.496;7.334;2022-07-22T04:15:04;18.70;99.90
10812;DHT22;5458;51.496;7.334;2022-07-22T04:17:30;18.60;99.90
10812;DHT22;5458;51.496;7.334;2022-07-22T04:19:56;18.70;99.90
10812;DHT22;5458;51.496;7.334;2022-07-22T04:22:22;18.70;99.90
10812;DHT22;5458;51.496;7.334;2022-07-22T04:24:48;18.60;99.90
10812;DHT22;5458;51.496;7.334;2022-07-22T04:27:13;18.70;99.90
10812;DHT22;5458;51.496;7.334;2022-07-22T04:29:39;18.70;99.90
10812;DHT22;5458;51.496;7.334;2022-07-22T04:32:05;18.70;99.90
10812;DHT22;5458;51.496;7.334;2022-07-22T04:34:31;18.70;99.90
10812;DHT22;5458;51.496;7.334;2022-07-22T04:36:56;18.70;99.90
10812;DHT22;5458;51.496;7.334;2022-07-22T04:39:22;18.70;99.90
10812;DHT22;5458;51.496;7.334;2022-07-22T04:41:48;18.70;99.90
10812;DHT22;5458;51.496;7.334;2022-07-22T04:44:13;18.70;99.90
10812;DHT22;5458;51.496;7.334;2022-07-22T04:46:39;18.60;99.90
10812;DHT22;5458;51.496;7.334;2022-07-22T04:49:04;18.60;99.90
10812;DHT22;5458;51.496;7.334;2022-07-22T04:51:30;18.60;99.90
10812;DHT22;5458;51.496;7.334;2022-07-22T04:53:56;18.60;99.90
10812;DHT22;5458;51.496;7.334;2022-07-22T04:56:22;18.60;99.90
10812;DHT22;5458;51.496;7.334;2022-07-22T04:58:47;18.70;99.90
10812;DHT22;5458;51.496;7.334;2022-07-22T05:01:13;18.70;99.90
10812;DHT22;5458;51.496;7.334;2022-07-22T05:03:42;18.70;99.90
10812;DHT22;5458;51.496;7.334;2022-07-22T05:06:08;18.70;99.90
10812;DHT22;5458;51.496;7.334;2022-07-22T05:08:34;18.70;99.90
10812;DHT22;5458;51.496;7.334;2022-07-22T05:10:59;18.80;99.90
10812;DHT22;5458;51.496;7.334;2022-07-22T05:13:25;18.80;99.90
10812;DHT22;5458;51.496;7.334;2022-07-22T05:15:51;18.80;99.90
10812;DHT22;5458;51.496;7.334;2022-07-22T05:18:16;18.80;99.90
10812;DHT22;5458;51.496;7.334;2022-07-22T05:20:42;18.90;99.90
10812;DHT22;5458;51.496;7.334;2022-07-22T05:23:08;18.90;99.90
10812;DHT22;5458;51.496;7.334;2022-07-22T05:25:34;19.00;99.90
10812;DHT22;5458;51.496;7.334;2022-07-22T05:27:59;19.00;99.90
10812;DHT22;5458;51.496;7.334;2022-07-22T05:30:25;19.00;99.90
10812;DHT22;5458;51.496;7.334;2022-07-22T05:32:52;19.00;99.90
10812;DHT22;5458;51.496;7.334;2022-07-22T05:35:17;19.10;99.90
10812;DHT22;5458;51.496;7.334;2022-07-22T05:37:43;19.00;99.90
10812;DHT22;5458;51.496;7.334;2022-07-22T05:40:09;19.10;99.90
10812;DHT22;5458;51.496;7.334;2022-07-22T05:42:35;19.00;99.90
10812;DHT22;5458;51.496;7.334;2022-07-22T05:45:00;19.10;99.90
10812;DHT22;5458;51.496;7.334;2022-07-22T05:47:26;19.10;99.90
10812;DHT22;5458;51.496;7.334;2022-07-22T05:49:51;19.20;99.90
10812;DHT22;5458;51.496;7.334;2022-07-22T05:52:17;19.20;99.90
10812;DHT22;5458;51.496;7.334;2022-07-22T05:54:43;19.20;99.90
10812;DHT22;5458;51.496;7.334;2022-07-22T05:57:08;19.30;99.90
10812;DHT22;5458;51.496;7.334;2022-07-22T05:59:35;19.30;99.90
10812;DHT22;5458;51.496;7.334;2022-07-22T06:02:02;19.30;99.90
10812;DHT22;5458;51.496;7.334;2022-07-22T06:04:27;19.30;99.90
10812;DHT22;5458;51.496;7.334;2022-07-22T06:06:53;19.30;99.90
10812;DHT22;5458;51.496;7.334;2022-07-22T06:09:18;19.40;99.90
10812;DHT22;5458;51.496;7.334;2022-07-22T06:11:44;19.40;99.90
10812;DHT22;5458;51.496;7.334;2022-07-22T06:14:10;19.40;99.90
10812;DHT22;5458;51.496;7.334;2022-07-22T06:16:35;19.40;99.90
10812;DHT22;5458;51.496;7.334;2022-07-22T06:19:02;19.60;99.90
10812;DHT22;5458;51.496;7.334;2022-07-22T06:21:28;19.70;99.90
10812;DHT22;5458;51.496;7.334;2022-07-22T06:23:54;19.80;99.90
10812;DHT22;5458;51.496;7.334;2022-07-22T06:26:19;19.90;99.90
10812;DHT22;5458;51.496;7.334;2022-07-22T06:28:45;20.00;99.90
10812;DHT22;5458;51.496;7.334;2022-07-22T06:31:10;20.10;99.90
10812;DHT22;5458;51.496;7.334;2022-07-22T06:33:36;20.20;99.90
10812;DHT22;5458;51.496;7.334;2022-07-22T06:36:03;20.30;99.90
10812;DHT22;5458;51.496;7.334;2022-07-22T06:38:29;20.40;99.90
10812;DHT22;5458;51.496;7.334;2022-07-22T06:40:55;20.40;99.90
10812;DHT22;5458;51.496;7.334;2022-07-22T06:43:21;20.40;99.90
10812;DHT22;5458;51.496;7.334;2022-07-22T06:45:47;20.40;99.90
10812;DHT22;5458;51.496;7.334;2022-07-22T06:48:12;20.30;99.90
10812;DHT22;5458;51.496;7.334;2022-07-22T06:50:38;20.30;99.90
10812;DHT22;5458;51.496;7.334;2022-07-22T06:53:04;20.40;99.90
10812;DHT22;5458;51.496;7.334;2022-07-22T06:55:29;20.40;99.90
10812;DHT22;5458;51.496;7.334;2022-07-22T06:57:55;20.50;99.90
10812;DHT22;5458;51.496;7.334;2022-07-22T07:00:20;20.40;99.90
10812;DHT22;5458;51.496;7.334;2022-07-22T07:02:46;20.40;99.90
10812;DHT22;5458;51.496;7.334;2022-07-22T07:05:12;20.40;99.90
10812;DHT22;5458;51.496;7.334;2022-07-22T07:07:38;20.30;99.90
10812;DHT22;5458;51.496;7.334;2022-07-22T07:10:04;20.20;99.90
10812;DHT22;5458;51.496;7.334;2022-07-22T07:12:30;20.20;99.90
10812;DHT22;5458;51.496;7.334;2022-07-22T07:14:55;20.30;99.90
10812;DHT22;5458;51.496;7.334;2022-07-22T07:17:21;20.40;99.90
10812;DHT22;5458;51.496;7.334;2022-07-22T07:19:46;20.40;99.90
10812;DHT22;5458;51.496;7.334;2022-07-22T07:22:12;20.50;99.90
10812;DHT22;5458;51.496;7.334;2022-07-22T07:24:38;20.60;99.90
10812;DHT22;5458;51.496;7.334;2022-07-22T07:27:03;20.60;99.90
10812;DHT22;5458;51.496;7.334;2022-07-22T07:29:29;20.60;99.90
10812;DHT22;5458;51.496;7.334;2022-07-22T07:31:54;20.60;99.90
10812;DHT22;5458;51.496;7.334;2022-07-22T07:34:20;20.50;99.90
10812;DHT22;5458;51.496;7.334;2022-07-22T07:36:45;20.50;99.90
10812;DHT22;5458;51.496;7.334;2022-07-22T07:39:11;20.60;99.90
10812;DHT22;5458;51.496;7.334;2022-07-22T07:41:37;20.60;99.90
10812;DHT22;5458;51.496;7.334;2022-07-22T07:44:03;20.60;99.90
10812;DHT22;5458;51.496;7.334;2022-07-22T07:46:29;20.70;99.90
10812;DHT22;5458;51.496;7.334;2022-07-22T07:48:54;20.80;99.90
10812;DHT22;5458;51.496;7.334;2022-07-22T07:51:20;20.80;99.90
10812;DHT22;5458;51.496;7.334;2022-07-22T07:53:46;20.90;99.90
10812;DHT22;5458;51.496;7.334;2022-07-22T07:56:11;20.90;99.90
10812;DHT22;5458;51.496;7.334;2022-07-22T07:58:37;20.90;99.90
10812;DHT22;5458;51.496;7.334;2022-07-22T08:01:03;21.00;99.90
10812;DHT22;5458;51.496;7.334;2022-07-22T08:03:28;21.00;99.90
10812;DHT22;5458;51.496;7.334;2022-07-22T08:05:54;21.10;99.90
10812;DHT22;5458;51.496;7.334;2022-07-22T08:08:20;21.10;99.90
10812;DHT22;5458;51.496;7.334;2022-07-22T08:10:46;21.10;99.90
10812;DHT22;5458;51.496;7.334;2022-07-22T08:13:11;21.10;99.90
10812;DHT22;5458;51.496;7.334;2022-07-22T08:15:37;21.00;99.90
10812;DHT22;5458;51.496;7.334;2022-07-22T08:18:04;20.90;99.90
10812;DHT22;5458;51.496;7.334;2022-07-22T08:20:29;20.80;99.90
10812;DHT22;5458;51.496;7.334;2022-07-22T08:22:56;20.80;99.90
10812;DHT22;5458;51.496;7.334;2022-07-22T08:25:22;20.80;99.90
10812;DHT22;5458;51.496;7.334;2022-07-22T08:27:48;20.80;99.90
10812;DHT22;5458;51.496;7.334;2022-07-22T08:30:14;20.80;99.90
10812;DHT22;5458;51.496;7.334;2022-07-22T08:32:40;20.90;99.90
10812;DHT22;5458;51.496;7.334;2022-07-22T08:35:06;21.00;99.90
10812;DHT22;5458;51.496;7.334;2022-07-22T08:37:32;20.90;99.90
10812;DHT22;5458;51.496;7.334;2022-07-22T08:39:58;20.90;99.90
10812;DHT22;5458;51.496;7.334;2022-07-22T08:42:24;20.90;99.90
10812;DHT22;5458;51.496;7.334;2022-07-22T08:44:50;20.80;99.90
10812;DHT22;5458;51.496;7.334;2022-07-22T08:47:21;20.90;99.90
10812;DHT22;5458;51.496;7.334;2022-07-22T08:49:47;21.00;99.90
10812;DHT22;5458;51.496;7.334;2022-07-22T08:52:12;21.10;99.90
10812;DHT22;5458;51.496;7.334;2022-07-22T08:54:38;21.10;99.90
10812;DHT22;5458;51.496;7.334;2022-07-22T08:57:03;21.10;99.90
10812;DHT22;5458;51.496;7.334;2022-07-22T08:59:29;21.10;99.90
10812;DHT22;5458;51.496;7.334;2022-07-22T09:02:09;21.10;99.90
10812;DHT22;5458;51.496;7.334;2022-07-22T09:05:03;21.10;99.90
10812;DHT22;5458;51.496;7.334;2022-07-22T09:07:29;21.10;99.90
10812;DHT22;5458;51.496;7.334;2022-07-22T09:09:57;21.10;99.90
10812;DHT22;5458;51.496;7.334;2022-07-22T09:12:23;21.10;99.90
10812;DHT22;5458;51.496;7.334;2022-07-22T09:14:54;21.00;99.90
10812;DHT22;5458;51.496;7.334;2022-07-22T09:17:34;21.00;99.90
10812;DHT22;5458;51.496;7.334;2022-07-22T09:20:16;21.00;99.90
10812;DHT22;5458;51.496;7.334;2022-07-22T09:22:47;21.00;99.90
10812;DHT22;5458;51.496;7.334;2022-07-22T09:28:08;21.00;99.90
10812;DHT22;5458;51.496;7.334;2022-07-22T09:30:39;21.00;99.90
10812;DHT22;5458;51.496;7.334;2022-07-22T09:33:07;21.00;99.90
10812;DHT22;5458;51.496;7.334;2022-07-22T09:35:33;21.10;99.90
10812;DHT22;5458;51.496;7.334;2022-07-22T09:38:02;21.10;99.90
10812;DHT22;5458;51.496;7.334;2022-07-22T09:40:33;21.10;99.90
10812;DHT22;5458;51.496;7.334;2022-07-22T09:43:02;21.10;99.90
10812;DHT22;5458;51.496;7.334;2022-07-22T09:45:29;21.20;99.90
10812;DHT22;5458;51.496;7.334;2022-07-22T09:47:57;21.20;99.90
10812;DHT22;5458;51.496;7.334;2022-07-22T09:50:25;21.20;99.90
10812;DHT22;5458;51.496;7.334;2022-07-22T09:52:53;21.10;99.90
10812;DHT22;5458;51.496;7.334;2022-07-22T09:55:21;21.00;99.90
10812;DHT22;5458;51.496;7.334;2022-07-22T09:57:49;21.10;99.90
10812;DHT22;5458;51.496;7.334;2022-07-22T10:00:19;21.10;99.90
10812;DHT22;5458;51.496;7.334;2022-07-22T10:05:15;21.30;99.90
10812;DHT22;5458;51.496;7.334;2022-07-22T10:07:42;21.30;99.90
10812;DHT22;5458;51.496;7.334;2022-07-22T10:10:13;21.30;99.90
10812;DHT22;5458;51.496;7.334;2022-07-22T10:12:38;21.30;99.90
10812;DHT22;5458;51.496;7.334;2022-07-22T10:15:06;21.30;99.90
10812;DHT22;5458;51.496;7.334;2022-07-22T10:17:34;21.30;99.90
10812;DHT22;5458;51.496;7.334;2022-07-22T10:20:01;21.30;99.90
10812;DHT22;5458;51.496;7.334;2022-07-22T10:25:08;21.30;99.90
10812;DHT22;5458;51.496;7.334;2022-07-22T10:28:09;21.30;99.90
10812;DHT22;5458;51.496;7.334;2022-07-22T10:30:45;21.30;99.90
10812;DHT22;5458;51.496;7.334;2022-07-22T10:33:12;21.40;99.90
10812;DHT22;5458;51.496;7.334;2022-07-22T10:36:00;21.50;99.90
10812;DHT22;5458;51.496;7.334;2022-07-22T10:38:27;21.70;99.70
10812;DHT22;5458;51.496;7.334;2022-07-22T10:41:00;21.90;99.10
10812;DHT22;5458;51.496;7.334;2022-07-22T10:43:31;22.00;99.40
10812;DHT22;5458;51.496;7.334;2022-07-22T10:45:58;22.10;99.30
10812;DHT22;5458;51.496;7.334;2022-07-22T10:51:14;22.30;99.10
10812;DHT22;5458;51.496;7.334;2022-07-22T10:53:58;22.30;98.70
10812;DHT22;5458;51.496;7.334;2022-07-22T10:56:36;22.40;98.90
10812;DHT22;5458;51.496;7.334;2022-07-22T11:01:39;22.60;98.40
10812;DHT22;5458;51.496;7.334;2022-07-22T11:04:15;22.60;97.40
10812;DHT22;5458;51.496;7.334;2022-07-22T11:06:41;22.60;97.10
10812;DHT22;5458;51.496;7.334;2022-07-22T11:09:10;22.50;97.00
10812;DHT22;5458;51.496;7.334;2022-07-22T11:11:50;22.50;97.60
10812;DHT22;5458;51.496;7.334;2022-07-22T11:16:45;21.90;97.70
10812;DHT22;5458;51.496;7.334;2022-07-22T11:19:10;21.90;98.00
10812;DHT22;5458;51.496;7.334;2022-07-22T11:21:36;21.80;98.00
10812;DHT22;5458;51.496;7.334;2022-07-22T11:24:04;21.80;98.40
10812;DHT22;5458;51.496;7.334;2022-07-22T11:29:05;21.70;98.50
10812;DHT22;5458;51.496;7.334;2022-07-22T11:31:30;21.70;98.70
10812;DHT22;5458;51.496;7.334;2022-07-22T11:34:12;21.70;98.40
10812;DHT22;5458;51.496;7.334;2022-07-22T11:36:40;21.60;98.40
10812;DHT22;5458;51.496;7.334;2022-07-22T11:39:08;21.60;98.80
10812;DHT22;5458;51.496;7.334;2022-07-22T11:41:34;21.70;99.90
10812;DHT22;5458;51.496;7.334;2022-07-22T11:44:00;21.70;98.80
10812;DHT22;5458;51.496;7.334;2022-07-22T11:46:26;21.70;98.60
10812;DHT22;5458;51.496;7.334;2022-07-22T11:48:53;21.70;98.50
10812;DHT22;5458;51.496;7.334;2022-07-22T11:51:19;21.70;99.10
10812;DHT22;5458;51.496;7.334;2022-07-22T11:53:45;21.80;99.00
10812;DHT22;5458;51.496;7.334;2022-07-22T11:56:11;21.90;98.90
10812;DHT22;5458;51.496;7.334;2022-07-22T11:58:48;22.00;98.70
10812;DHT22;5458;51.496;7.334;2022-07-22T12:01:20;22.00;99.00
10812;DHT22;5458;51.496;7.334;2022-07-22T12:03:49;22.10;99.00
10812;DHT22;5458;51.496;7.334;2022-07-22T12:06:16;22.20;99.20
10812;DHT22;5458;51.496;7.334;2022-07-22T12:11:28;22.30;98.40
10812;DHT22;5458;51.496;7.334;2022-07-22T12:13:54;22.30;98.60
10812;DHT22;5458;51.496;7.334;2022-07-22T12:16:28;22.40;98.70
10812;DHT22;5458;51.496;7.334;2022-07-22T12:19:08;22.60;98.20
10812;DHT22;5458;51.496;7.334;2022-07-22T12:24:41;22.80;97.60
10812;DHT22;5458;51.496;7.334;2022-07-22T12:27:09;22.80;97.50
10812;DHT22;5458;51.496;7.334;2022-07-22T12:38:05;23.00;98.90
10812;DHT22;5458;51.496;7.334;2022-07-22T12:40:19;23.20;98.60
10812;DHT22;5458;51.496;7.334;2022-07-22T12:43:03;23.20;97.10
10812;DHT22;5458;51.496;7.334;2022-07-22T12:45:30;23.40;97.80
10812;DHT22;5458;51.496;7.334;2022-07-22T12:48:05;23.50;97.10
10812;DHT22;5458;51.496;7.334;2022-07-22T12:50:38;23.60;97.00
10812;DHT22;5458;51.496;7.334;2022-07-22T12:55:34;23.60;97.40
10812;DHT22;5458;51.496;7.334;2022-07-22T12:58:01;23.30;96.00
10812;DHT22;5458;51.496;7.334;2022-07-22T13:00:31;23.20;96.90
10812;DHT22;5458;51.496;7.334;2022-07-22T13:02:57;23.30;96.00
10812;DHT22;5458;51.496;7.334;2022-07-22T13:05:24;23.30;96.20
10812;DHT22;5458;51.496;7.334;2022-07-22T13:07:50;23.30;97.20
10812;DHT22;5458;51.496;7.334;2022-07-22T13:10:18;23.30;97.30
10812;DHT22;5458;51.496;7.334;2022-07-22T13:12:44;23.40;96.70
10812;DHT22;5458;51.496;7.334;2022-07-22T13:15:10;23.40;96.90
10812;DHT22;5458;51.496;7.334;2022-07-22T13:17:36;23.40;96.10
10812;DHT22;5458;51.496;7.334;2022-07-22T13:20:04;23.40;96.00
10812;DHT22;5458;51.496;7.334;2022-07-22T13:22:31;23.20;95.80
10812;DHT22;5458;51.496;7.334;2022-07-22T13:24:56;23.30;96.20
10812;DHT22;5458;51.496;7.334;2022-07-22T13:27:22;23.50;96.00
10812;DHT22;5458;51.496;7.334;2022-07-22T13:29:48;23.70;95.40
10812;DHT22;5458;51.496;7.334;2022-07-22T13:32:14;23.80;96.00
10812;DHT22;5458;51.496;7.334;2022-07-22T13:34:40;23.70;95.10
10812;DHT22;5458;51.496;7.334;2022-07-22T13:37:06;23.60;95.50
10812;DHT22;5458;51.496;7.334;2022-07-22T13:39:31;23.40;95.10
10812;DHT22;5458;51.496;7.334;2022-07-22T13:41:57;23.40;95.40
10812;DHT22;5458;51.496;7.334;2022-07-22T13:44:23;23.50;95.30
10812;DHT22;5458;51.496;7.334;2022-07-22T13:46:48;23.70;95.10
10812;DHT22;5458;51.496;7.334;2022-07-22T13:49:14;23.90;95.00
10812;DHT22;5458;51.496;7.334;2022-07-22T13:51:40;24.00;95.10
10812;DHT22;5458;51.496;7.334;2022-07-22T13:54:06;24.10;95.40
10812;DHT22;5458;51.496;7.334;2022-07-22T13:56:33;24.30;95.50
10812;DHT22;5458;51.496;7.334;2022-07-22T13:59:00;24.50;94.10
10812;DHT22;5458;51.496;7.334;2022-07-22T14:01:25;24.50;93.30
10812;DHT22;5458;51.496;7.334;2022-07-22T14:03:51;24.40;92.90
10812;DHT22;5458;51.496;7.334;2022-07-22T14:06:17;24.40;93.50
10812;DHT22;5458;51.496;7.334;2022-07-22T14:08:43;24.30;92.50
10812;DHT22;5458;51.496;7.334;2022-07-22T14:11:08;24.20;92.80
10812;DHT22;5458;51.496;7.334;2022-07-22T14:13:34;23.90;92.40
10812;DHT22;5458;51.496;7.334;2022-07-22T14:16:00;23.80;92.90
10812;DHT22;5458;51.496;7.334;2022-07-22T14:18:46;23.80;93.70
10812;DHT22;5458;51.496;7.334;2022-07-22T14:21:11;23.70;93.90
10812;DHT22;5458;51.496;7.334;2022-07-22T14:23:37;23.50;93.50
10812;DHT22;5458;51.496;7.334;2022-07-22T14:26:03;23.40;93.40
10812;DHT22;5458;51.496;7.334;2022-07-22T14:28:28;23.30;93.50
10812;DHT22;5458;51.496;7.334;2022-07-22T14:30:54;23.30;93.60
10812;DHT22;5458;51.496;7.334;2022-07-22T14:33:19;23.20;94.00
10812;DHT22;5458;51.496;7.334;2022-07-22T14:35:45;23.40;94.40
10812;DHT22;5458;51.496;7.334;2022-07-22T14:38:10;23.60;93.70
10812;DHT22;5458;51.496;7.334;2022-07-22T14:40:36;23.70;93.50
10812;DHT22;5458;51.496;7.334;2022-07-22T14:43:02;23.60;93.00
10812;DHT22;5458;51.496;7.334;2022-07-22T14:45:27;23.60;94.10
10812;DHT22;5458;51.496;7.334;2022-07-22T14:47:53;23.70;94.60
10812;DHT22;5458;51.496;7.334;2022-07-22T14:50:18;23.80;93.30
10812;DHT22;5458;51.496;7.334;2022-07-22T14:52:44;23.80;93.10
10812;DHT22;5458;51.496;7.334;2022-07-22T14:55:09;23.90;94.20
10812;DHT22;5458;51.496;7.334;2022-07-22T14:57:35;24.00;93.60
10812;DHT22;5458;51.496;7.334;2022-07-22T15:00:01;24.00;94.00
10812;DHT22;5458;51.496;7.334;2022-07-22T15:02:27;23.90;93.00
10812;DHT22;5458;51.496;7.334;2022-07-22T15:04:53;23.80;92.70
10812;DHT22;5458;51.496;7.334;2022-07-22T15:07:18;23.70;93.20
10812;DHT22;5458;51.496;7.334;2022-07-22T15:09:44;23.70;93.60
10812;DHT22;5458;51.496;7.334;2022-07-22T15:12:09;23.80;93.70
10812;DHT22;5458;51.496;7.334;2022-07-22T15:14:35;23.90;93.00
10812;DHT22;5458;51.496;7.334;2022-07-22T15:17:00;24.00;92.90
10812;DHT22;5458;51.496;7.334;2022-07-22T15:19:26;23.90;93.00
10812;DHT22;5458;51.496;7.334;2022-07-22T15:21:52;23.80;92.70
10812;DHT22;5458;51.496;7.334;2022-07-22T15:24:17;23.60;92.90
10812;DHT22;5458;51.496;7.334;2022-07-22T15:26:43;23.40;92.80
10812;DHT22;5458;51.496;7.334;2022-07-22T15:29:08;23.40;93.30
10812;DHT22;5458;51.496;7.334;2022-07-22T15:31:34;23.40;93.50
10812;DHT22;5458;51.496;7.334;2022-07-22T15:34:00;23.50;93.10
10812;DHT22;5458;51.496;7.334;2022-07-22T15:36:26;23.50;93.80
10812;DHT22;5458;51.496;7.334;2022-07-22T15:38:51;23.50;93.30
10812;DHT22;5458;51.496;7.334;2022-07-22T15:41:17;23.60;93.30
10812;DHT22;5458;51.496;7.334;2022-07-22T15:43:44;23.70;93.90
10812;DHT22;5458;51.496;7.334;2022-07-22T15:46:09;23.80;94.10
10812;DHT22;5458;51.496;7.334;2022-07-22T15:48:35;23.90;94.10
10812;DHT22;5458;51.496;7.334;2022-07-22T15:51:01;24.10;93.80
10812;DHT22;5458;51.496;7.334;2022-07-22T15:53:27;24.10;93.40
10812;DHT22;5458;51.496;7.334;2022-07-22T15:55:53;24.20;93.40
10812;DHT22;5458;51.496;7.334;2022-07-22T15:58:18;24.20;92.60
10812;DHT22;5458;51.496;7.334;2022-07-22T16:01:03;24.20;93.00
10812;DHT22;5458;51.496;7.334;2022-07-22T16:03:28;24.10;92.70
10812;DHT22;5458;51.496;7.334;2022-07-22T16:05:55;24.10;93.00
10812;DHT22;5458;51.496;7.334;2022-07-22T16:08:21;24.10;93.60
10812;DHT22;5458;51.496;7.334;2022-07-22T16:10:46;23.90;92.80
10812;DHT22;5458;51.496;7.334;2022-07-22T16:13:12;23.80;93.10
10812;DHT22;5458;51.496;7.334;2022-07-22T16:15:38;23.70;93.00
10812;DHT22;5458;51.496;7.334;2022-07-22T16:18:03;23.70;93.40